Time;durP1;ratioP1;P1;durP2;ratioP2;P2;SDS_P1;SDS_P2;PMS_P1;PMS_P2;Temp;Humidity;BMP_temperature;BMP_pressure;BME280_temperature;BME280_humidity;BME280_pressure;Samples;Min_cycle;Max_cycle;Signal;HPM_P1;HPM_P2
2023/09/11 00:01:35;;;;;;;20.60;18.00;;;;;;;18.35;62.94;100454.86;108549;1284;24416;-85
2023/09/11 00:04:21;;;;;;;19.60;17.40;;;;;;;18.30;63.22;100455.29;108649;1284;22010;-85
2023/09/11 00:07:19;;;;;;;19.80;17.70;;;;;;;18.23;63.24;100449.45;108402;1288;22020;-85
2023/09/11 00:10:00;;;;;;;19.90;16.90;;;;;;;18.20;63.44;100447.36;108570;1283;21992;-84
2023/09/11 00:12:57;;;;;;;19.80;17.70;;;;;;;18.22;63.68;100445.48;108678;1283;22363;-86
2023/09/11 00:15:32;;;;;;;20.20;18.30;;;;;;;18.21;63.64;100446.93;108575;1279;21992;-84
2023/09/11 00:18:29;;;;;;;23.50;17.50;;;;;;;18.18;63.78;100440.11;108967;1279;22009;-81
2023/09/11 00:21:23;;;;;;;19.80;17.70;;;;;;;18.09;63.91;100427.32;109174;1279;21994;-85
2023/09/11 00:24:23;;;;;;;19.80;17.40;;;;;;;18.14;63.98;100436.38;109751;1275;22338;-87
2023/09/11 00:26:55;;;;;;;19.60;17.00;;;;;;;18.09;64.09;100435.13;109473;1275;23697;-87
2023/09/11 00:29:28;;;;;;;21.60;19.20;;;;;;;18.03;64.27;100434.48;109351;1275;21985;-89
2023/09/11 00:32:10;;;;;;;25.60;18.70;;;;;;;17.96;64.58;100432.10;109701;1269;22002;-87
2023/09/11 00:35:20;;;;;;;24.20;18.30;;;;;;;17.91;65.27;100430.86;109687;1273;21988;-85
2023/09/11 00:41:40;;;;;;;20.40;17.30;;;;;;;17.83;66.11;100439.81;109721;1273;23599;-89
2023/09/11 00:44:31;;;;;;;21.00;17.00;;;;;;;17.85;66.17;100444.95;109606;1273;21971;-86
2023/09/11 00:47:22;;;;;;;21.20;18.30;;;;;;;17.87;66.20;100442.74;109701;1273;22050;-88
2023/09/11 00:50:24;;;;;;;;;;;;;;;;;;;;;
2023/09/11 00:53:05;;;;;;;22.60;18.10;;;;;;;17.83;66.32;100434.35;109604;1273;22180;-86
2023/09/11 00:56:10;;;;;;;18.30;16.50;;;;;;;17.81;66.24;100435.00;109424;1273;24344;-85
2023/09/11 00:59:17;;;;;;;18.80;16.50;;;;;;;17.80;66.19;100440.38;110037;1273;21981;-86
2023/09/11 01:02:30;;;;;;;;;;;;;;;;;;;;;
2023/09/11 01:05:49;;;;;;;19.40;17.30;;;;;;;17.70;66.20;100437.15;110271;1271;22258;-87
2023/09/11 01:09:10;;;;;;;23.80;16.60;;;;;;;17.66;66.26;100437.61;110260;1271;21991;-89
2023/09/11 01:12:25;;;;;;;19.40;17.40;;;;;;;17.61;66.30;100438.46;110186;1271;21978;-88
2023/09/11 01:15:37;;;;;;;18.80;16.80;;;;;;;17.60;66.44;100435.33;110821;1257;22531;-86
2023/09/11 01:19:15;;;;;;;19.00;16.90;;;;;;;17.56;66.59;100440.20;111613;1254;22720;-86
2023/09/11 01:22:58;;;;;;;18.30;16.30;;;;;;;17.51;66.82;100434.39;111701;1256;22231;-86
2023/09/11 01:26:11;;;;;;;24.30;18.10;;;;;;;17.45;66.98;100428.20;111416;1256;21959;-86
2023/09/11 01:29:34;;;;;;;20.40;18.20;;;;;;;17.48;67.02;100430.64;111434;1256;22354;-86
2023/09/11 01:32:14;;;;;;;21.70;18.80;;;;;;;17.41;67.14;100417.95;111310;1256;24339;-84
2023/09/11 01:35:05;;;;;;;21.40;19.30;;;;;;;17.46;67.12;100429.73;111263;1256;21991;-85
2023/09/11 01:38:12;;;;;;;24.70;20.40;;;;;;;17.41;67.06;100430.45;111336;1256;22368;-83
2023/09/11 01:41:13;;;;;;;;;;;;;;;17.37;67.03;100432.95;111241;1256;21901;-85
2023/09/11 01:44:09;;;;;;;22.20;19.70;;;;;;;17.26;67.40;100431.74;111225;1257;21952;-81
2023/09/11 01:47:50;;;;;;;22.60;19.10;;;;;;;17.28;67.56;100432.69;111254;1257;22005;-85
2023/09/11 01:50:29;;;;;;;23.60;20.80;;;;;;;17.30;67.43;100429.38;111471;1256;21936;-85
2023/09/11 01:53:23;;;;;;;28.20;23.70;;;;;;;17.33;67.18;100433.08;111680;1256;22037;-86
2023/09/11 01:56:42;;;;;;;26.80;23.70;;;;;;;17.26;67.04;100424.52;111396;1256;22012;-87
2023/09/11 02:00:01;;;;;;;;;;;;;;;;;;;;;
2023/09/11 02:03:20;;;;;;;28.30;25.20;;;;;;;17.17;66.91;100430.36;111316;1256;24378;-85
2023/09/11 02:06:30;;;;;;;28.90;26.00;;;;;;;17.09;66.95;100429.32;111457;1255;22821;-86
2023/09/11 02:09:35;;;;;;;28.90;25.40;;;;;;;17.03;67.18;100430.41;111213;1262;21982;-86
2023/09/11 02:12:44;;;;;;;29.10;25.40;;;;;;;16.97;67.14;100430.75;111260;1262;22011;-87
2023/09/11 02:15:51;;;;;;;26.80;24.20;;;;;;;16.89;67.13;100427.09;110943;1263;21998;-86
2023/09/11 02:18:45;;;;;;;;;;;;;;;16.84;67.23;100425.95;110700;1265;21934;-86
2023/09/11 02:22:33;;;;;;;29.00;24.10;;;;;;;16.61;67.64;100424.02;110620;1268;21969;-86
2023/09/11 02:25:31;;;;;;;26.70;24.20;;;;;;;16.54;67.86;100420.96;109642;1277;21987;-87
2023/09/11 02:28:50;;;;;;;27.50;24.60;;;;;;;16.51;68.02;100418.30;109532;1277;21988;-85
2023/09/11 02:32:06;;;;;;;28.10;25.50;;;;;;;16.56;68.32;100415.52;109621;1277;21988;-87
2023/09/11 02:35:28;;;;;;;28.00;24.70;;;;;;;16.58;68.22;100414.37;109462;1277;22041;-85
2023/09/11 02:38:31;;;;;;;27.10;24.00;;;;;;;16.58;68.28;100412.98;108932;1284;23069;-87
2023/09/11 02:41:23;;;;;;;28.60;25.80;;;;;;;16.61;68.01;100415.45;108704;1286;22002;-85
2023/09/11 02:44:23;;;;;;;28.10;25.40;;;;;;;16.59;68.01;100418.48;108489;1289;23881;-85
2023/09/11 02:46:54;;;;;;;28.40;25.50;;;;;;;16.58;68.21;100413.33;108724;1284;21994;-85
2023/09/11 02:49:51;;;;;;;30.70;25.30;;;;;;;16.59;68.23;100412.54;108661;1289;22561;-86
2023/09/11 02:52:45;;;;;;;33.10;24.70;;;;;;;16.61;68.31;100413.84;108293;1294;21991;-88
2023/09/11 02:55:51;;;;;;;26.90;24.20;;;;;;;16.59;68.22;100411.67;107898;1292;22026;-88
2023/09/11 02:58:41;;;;;;;;;;;;;;;16.52;68.25;100406.50;108268;1289;22893;-85
2023/09/11 03:01:18;;;;;;;37.80;23.70;;;;;;;16.45;68.67;100407.93;108139;1288;22008;-84
2023/09/11 03:03:59;;;;;;;36.90;25.50;;;;;;;16.53;68.55;100411.17;108169;1294;22014;-85
2023/09/11 03:06:49;;;;;;;35.50;24.50;;;;;;;16.56;68.39;100410.42;107919;1289;22004;-84
2023/09/11 03:09:51;;;;;;;26.10;23.60;;;;;;;16.59;68.53;100411.83;108565;1289;22294;-85
2023/09/11 03:12:56;;;;;;;26.10;23.60;;;;;;;16.56;68.14;100408.55;108663;1287;22446;-84
2023/09/11 03:15:50;;;;;;;28.60;25.70;;;;;;;16.50;68.25;100405.55;108720;1282;22042;-85
2023/09/11 03:18:55;;;;;;;;;;;;;;;;;;;;;
2023/09/11 03:22:11;;;;;;;27.70;25.00;;;;;;;16.44;68.63;100403.85;109893;1268;23679;-86
2023/09/11 03:25:11;;;;;;;28.20;23.70;;;;;;;16.45;68.66;100401.48;109415;1274;21975;-85
2023/09/11 03:27:55;;;;;;;30.40;24.30;;;;;;;16.46;68.42;100402.63;109540;1274;21990;-84
2023/09/11 03:31:04;;;;;;;26.70;24.00;;;;;;;16.45;68.35;100400.79;109523;1276;23093;-85
2023/09/11 03:33:53;;;;;;;29.00;25.90;;;;;;;16.39;68.23;100400.05;109427;1273;23503;-87
2023/09/11 03:37:24;;;;;;;26.50;23.90;;;;;;;16.29;68.37;100401.21;109697;1273;21970;-83
2023/09/11 03:40:20;;;;;;;26.10;23.50;;;;;;;16.24;68.55;100399.56;109617;1273;22130;-86
2023/09/11 03:43:47;;;;;;;28.10;23.80;;;;;;;16.15;68.64;100396.57;109217;1274;22411;-85
2023/09/11 03:46:31;;;;;;;29.60;23.00;;;;;;;16.06;68.86;100394.13;109230;1276;22896;-86
2023/09/11 03:49:26;;;;;;;25.30;22.70;;;;;;;16.05;69.10;100393.69;109499;1273;23618;-85
2023/09/11 03:52:27;;;;;;;26.30;23.60;;;;;;;16.06;69.35;100392.59;109325;1273;21940;-83
2023/09/11 03:55:16;;;;;;;29.00;23.00;;;;;;;16.03;69.08;100390.13;109478;1273;22991;-85
2023/09/11 03:58:00;;;;;;;24.00;21.70;;;;;;;15.94;68.96;100391.70;109612;1273;21986;-84
2023/09/11 04:01:05;;;;;;;26.40;23.30;;;;;;;15.83;69.28;100391.48;109669;1269;21981;-84
2023/09/11 04:04:06;;;;;;;25.00;22.40;;;;;;;15.77;69.50;100389.40;109550;1268;23354;-85
2023/09/11 04:07:36;;;;;;;27.20;24.20;;;;;;;15.72;69.94;100385.30;109437;1275;23075;-84
2023/09/11 04:10:37;;;;;;;26.30;23.70;;;;;;;15.65;70.20;100380.77;108898;1283;22382;-84
2023/09/11 04:13:19;;;;;;;27.30;24.60;;;;;;;15.64;70.59;100381.36;108812;1283;22918;-85
2023/09/11 04:16:06;;;;;;;25.90;23.60;;;;;;;15.68;70.70;100376.55;108701;1287;21998;-84
2023/09/11 04:18:46;;;;;;;26.40;23.40;;;;;;;15.69;70.70;100379.66;108671;1287;21995;-85
2023/09/11 04:21:42;;;;;;;26.90;24.10;;;;;;;15.67;70.89;100381.32;108871;1281;22002;-84
2023/09/11 04:25:33;;;;;;;27.00;24.50;;;;;;;15.67;71.04;100381.19;109201;1279;23605;-87
2023/09/11 04:28:36;;;;;;;26.30;23.60;;;;;;;15.64;71.21;100378.54;108992;1279;21995;-86
2023/09/11 04:39:25;;;;;;;;;;;;;;;;;;;;;
2023/09/11 04:47:11;;;;;;;29.80;26.20;;;;;;;15.59;71.68;100373.19;108574;1289;544512;-84
2023/09/11 04:50:27;;;;;;;29.00;26.00;;;;;;;15.54;71.77;100374.37;109355;1278;23749;-87
2023/09/11 04:53:56;;;;;;;29.00;25.80;;;;;;;15.56;71.76;100370.92;108792;1286;21997;-83
2023/09/11 04:58:25;;;;;;;;;;;;;;;;;;;;;
2023/09/11 05:01:24;;;;;;;28.40;25.70;;;;;;;15.62;72.07;100371.80;105096;1283;23744;-84
2023/09/11 05:05:04;;;;;;;;;;;;;;;;;;;;;
2023/09/11 05:08:49;;;;;;;;;;;;;;;;;;;;;
2023/09/11 05:11:47;;;;;;;32.50;26.40;;;;;;;15.87;71.80;100367.55;108583;1286;21996;-84
2023/09/11 05:19:02;;;;;;;29.50;25.90;;;;;;;16.03;71.43;100371.19;108410;1288;22017;-84
2023/09/11 05:22:13;;;;;;;;;;;;;;;;;;;;;
2023/09/11 05:26:10;;;;;;;;;;;;;;;;;;;;;
2023/09/11 05:29:52;;;;;;;;;;;;;;;;;;;;;
2023/09/11 05:33:43;;;;;;;40.90;37.40;;;;;;;16.41;70.67;100374.16;108661;1284;21994;-82
2023/09/11 05:37:08;;;;;;;41.00;37.10;;;;;;;16.52;70.57;100373.08;108631;1284;22014;-82
2023/09/11 05:46:24;;;;;;;44.40;40.80;;;;;;;16.91;69.69;100375.80;108408;1284;22472;-80
2023/09/11 05:48:52;;;;;;;40.20;36.00;;;;;;;17.02;69.11;100375.80;108685;1284;22005;-81
2023/09/11 05:51:43;;;;;;;36.40;33.20;;;;;;;17.13;68.94;100374.50;108971;1278;22006;-80
2023/09/11 05:55:33;;;;;;;36.30;33.00;;;;;;;17.24;68.85;100373.61;108810;1279;23612;-82
2023/09/11 05:58:07;;;;;;;34.70;31.60;;;;;;;17.36;68.50;100361.45;108767;1280;23619;-81
2023/09/11 06:00:59;;;;;;;;;;;;;;;;;;;;;
2023/09/11 06:03:52;;;;;;;32.00;29.30;;;;;;;17.68;68.03;100369.86;108992;1276;21879;-81
2023/09/11 06:06:31;;;;;;;35.80;32.10;;;;;;;17.85;67.70;100369.64;109180;1276;21986;-81
2023/09/11 06:09:16;;;;;;;32.60;29.50;;;;;;;18.04;67.51;100369.43;109059;1276;22837;-80
2023/09/11 06:11:57;;;;;;;33.90;30.80;;;;;;;18.26;67.12;100366.98;109101;1276;23672;-80
2023/09/11 06:14:42;;;;;;;35.90;32.20;;;;;;;18.46;66.77;100371.42;109705;1271;22035;-79
2023/09/11 06:17:27;;;;;;;34.40;31.30;;;;;;;18.70;66.54;100368.36;109138;1276;22005;-80
2023/09/11 06:20:28;;;;;;;33.40;30.10;;;;;;;18.95;65.74;100369.36;109092;1277;22336;-80
2023/09/11 06:23:30;;;;;;;32.80;29.40;;;;;;;19.26;65.28;100369.73;109306;1272;21981;-81
2023/09/11 06:26:33;;;;;;;30.30;27.20;;;;;;;19.62;64.50;100364.79;109324;1272;21993;-82
2023/09/11 06:29:34;;;;;;;30.10;27.40;;;;;;;19.96;63.79;100366.64;109309;1272;23626;-82
2023/09/11 06:32:46;;;;;;;;;;;;;;;;;;;;;
2023/09/11 06:35:59;;;;;;;;;;;;;;;;;;;;;
2023/09/11 06:39:15;;;;;;;29.00;25.80;;;;;;;21.33;61.70;100368.52;110895;1259;21982;-84
2023/09/11 06:42:20;;;;;;;27.40;24.60;;;;;;;21.90;60.75;100367.36;110472;1265;22021;-86
2023/09/11 06:44:57;;;;;;;25.50;22.90;;;;;;;22.39;59.72;100365.25;110417;1265;21961;-82
2023/09/11 06:47:42;;;;;;;22.60;20.40;;;;;;;22.89;58.23;100362.43;109552;1271;23108;-80
2023/09/11 06:50:27;;;;;;;22.20;20.00;;;;;;;23.37;56.60;100362.45;109668;1270;23056;-84
2023/09/11 06:53:01;;;;;;;24.10;19.40;;;;;;;23.79;55.38;100362.86;109663;1270;22065;-83
2023/09/11 06:55:56;;;;;;;22.60;20.50;;;;;;;24.21;54.61;100357.98;109873;1271;22021;-81
2023/09/11 06:58:32;;;;;;;25.10;20.00;;;;;;;24.65;53.47;100360.73;109527;1270;21959;-82
2023/09/11 07:01:18;;;;;;;19.10;17.30;;;;;;;25.10;52.72;100358.67;109508;1271;24486;-82
2023/09/11 07:04:10;;;;;;;20.90;18.00;;;;;;;25.51;51.12;100360.27;109668;1271;23719;-82
2023/09/11 07:06:51;;;;;;;;;;;;;;;25.88;50.62;100362.27;110387;1265;23590;-83
2023/09/11 07:09:44;;;;;;;17.50;14.40;;;;;;;26.27;49.72;100363.77;110359;1265;21973;-83
2023/09/11 07:12:28;;;;;;;16.10;14.40;;;;;;;26.68;48.70;100367.70;110475;1259;23644;-82
2023/09/11 07:15:06;;;;;;;17.80;15.00;;;;;;;27.06;47.94;100366.27;110839;1250;23033;-83
2023/09/11 07:17:51;;;;;;;18.00;14.80;;;;;;;27.42;46.78;100365.81;110890;1260;22388;-83
2023/09/11 07:20:32;;;;;;;17.90;14.70;;;;;;;27.71;45.82;100362.80;110323;1265;21988;-85
2023/09/11 07:23:29;;;;;;;14.30;12.90;;;;;;;27.98;44.91;100360.77;110428;1264;23725;-82
2023/09/11 07:26:12;;;;;;;14.90;13.40;;;;;;;28.19;44.22;100359.80;110149;1265;24292;-82
2023/09/11 07:29:06;;;;;;;17.50;12.70;;;;;;;28.47;43.47;100361.55;110313;1265;22148;-82
2023/09/11 07:31:43;;;;;;;13.80;12.40;;;;;;;28.73;42.92;100361.80;109651;1271;22441;-81
2023/09/11 07:34:16;;;;;;;20.00;12.00;;;;;;;28.94;42.40;100363.41;109668;1271;21957;-82
2023/09/11 07:36:57;;;;;;;14.60;12.30;;;;;;;29.15;42.00;100358.05;109463;1271;23625;-82
2023/09/11 07:39:34;;;;;;;18.30;11.10;;;;;;;29.34;41.74;100357.95;109678;1267;22017;-81
2023/09/11 07:42:09;;;;;;;17.90;12.40;;;;;;;29.62;40.82;100357.20;110041;1267;23620;-80
2023/09/11 07:44:52;;;;;;;13.70;11.50;;;;;;;29.76;40.33;100352.33;110131;1267;21991;-81
2023/09/11 07:47:38;;;;;;;20.10;12.20;;;;;;;30.00;40.69;100353.02;110047;1267;21967;-82
2023/09/11 07:50:12;;;;;;;18.90;12.20;;;;;;;30.35;39.81;100352.06;109531;1269;22003;-82
2023/09/11 07:53:06;;;;;;;17.60;11.00;;;;;;;30.60;39.18;100353.01;109749;1270;21999;-81
2023/09/11 07:55:42;;;;;;;16.60;12.30;;;;;;;30.87;38.76;100352.84;109806;1270;21944;-81
2023/09/11 07:58:20;;;;;;;19.50;11.10;;;;;;;31.09;38.34;100356.21;109926;1269;23072;-83
2023/09/11 08:01:28;;;;;;;22.70;11.60;;;;;;;31.39;38.12;100354.55;109437;1274;23736;-82
2023/09/11 08:04:05;;;;;;;15.60;10.40;;;;;;;31.65;37.12;100356.02;109286;1274;21990;-81
2023/09/11 08:07:05;;;;;;;16.30;10.70;;;;;;;31.77;36.54;100356.66;109304;1274;22391;-82
2023/09/11 08:09:46;;;;;;;18.20;12.20;;;;;;;32.01;36.31;100352.76;109525;1273;22448;-82
2023/09/11 08:12:21;;;;;;;17.20;12.10;;;;;;;32.17;35.88;100352.11;109414;1271;22046;-82
2023/09/11 08:14:54;;;;;;;;;;;;;;;32.43;35.96;100348.32;109194;1278;21955;-83
2023/09/11 08:17:31;;;;;;;14.40;10.90;;;;;;;32.62;35.31;100348.05;109131;1267;23106;-81
2023/09/11 08:20:19;;;;;;;14.70;10.60;;;;;;;32.80;35.15;100348.93;109185;1276;22004;-82
2023/09/11 08:23:02;;;;;;;13.40;11.00;;;;;;;32.88;33.92;100344.63;109053;1279;24394;-81
2023/09/11 08:25:35;;;;;;;19.20;11.20;;;;;;;32.91;33.84;100347.71;108882;1279;22689;-81
2023/09/11 08:28:12;;;;;;;19.30;10.80;;;;;;;32.98;33.19;100347.31;109122;1275;22304;-83
2023/09/11 08:30:42;;;;;;;18.50;9.40;;;;;;;32.98;32.64;100346.91;109486;1275;23099;-82
2023/09/11 08:33:20;;;;;;;13.10;8.70;;;;;;;33.17;32.93;100348.69;109290;1275;23065;-81
2023/09/11 08:36:04;;;;;;;16.00;9.70;;;;;;;33.35;32.64;100352.24;109499;1275;22994;-81
2023/09/11 08:38:39;;;;;;;;;;;;;;;33.57;32.46;100351.08;109543;1270;22660;-81
2023/09/11 08:41:19;;;;;;;26.30;10.40;;;;;;;33.73;32.15;100351.83;109896;1265;21952;-82
2023/09/11 08:43:52;;;;;;;12.50;7.30;;;;;;;33.81;31.85;100353.04;110167;1265;23706;-84
2023/09/11 08:46:35;;;;;;;17.00;7.00;;;;;;;33.83;31.88;100353.65;110282;1265;21994;-82
2023/09/11 08:49:14;;;;;;;53.30;20.40;;;;;;;34.02;31.95;100352.23;109479;1272;23722;-83
2023/09/11 08:52:06;;;;;;;50.60;20.80;;;;;;;33.99;31.82;100354.70;109310;1270;23869;-85
2023/09/11 08:54:48;;;;;;;17.80;8.50;;;;;;;33.56;32.54;100354.41;109304;1270;21977;-84
2023/09/11 08:57:24;;;;;;;13.00;6.60;;;;;;;33.47;33.09;100353.20;109077;1277;23734;-85
2023/09/11 09:00:06;;;;;;;11.00;6.50;;;;;;;33.64;32.43;100353.80;109545;1272;21757;-83
2023/09/11 09:02:41;;;;;;;17.30;6.70;;;;;;;33.79;31.82;100355.88;109502;1271;23823;-85
2023/09/11 09:05:20;;;;;;;11.10;6.50;;;;;;;33.91;31.47;100355.65;109479;1272;22034;-86
2023/09/11 09:07:59;;;;;;;18.00;6.60;;;;;;;34.08;31.13;100353.94;109503;1271;22049;-85
2023/09/11 09:10:33;;;;;;;10.90;6.80;;;;;;;34.19;30.84;100353.20;109538;1271;21966;-85
2023/09/11 09:13:07;;;;;;;15.00;6.90;;;;;;;34.23;30.26;100355.08;109260;1270;23609;-85
2023/09/11 09:15:44;;;;;;;9.40;6.30;;;;;;;34.30;30.22;100357.58;109905;1266;21975;-85
2023/09/11 09:18:17;;;;;;;9.20;6.40;;;;;;;34.38;30.00;100355.79;109838;1270;21977;-86
2023/09/11 09:20:49;;;;;;;;;;;;;;;34.38;29.60;100354.20;109758;1268;23696;-86
2023/09/11 09:23:36;;;;;;;7.30;5.80;;;;;;;34.38;29.61;100349.20;109533;1272;22025;-84
2023/09/11 09:26:09;;;;;;;10.80;6.20;;;;;;;34.52;29.49;100348.92;109317;1275;22375;-85
2023/09/11 09:28:51;;;;;;;11.80;6.10;;;;;;;34.61;29.24;100343.04;109203;1276;22089;-85
2023/09/11 09:31:26;;;;;;;8.00;5.90;;;;;;;34.63;28.72;100339.75;108855;1281;21992;-86
2023/09/11 09:34:09;;;;;;;15.90;6.20;;;;;;;34.59;28.50;100336.51;108842;1281;22808;-88
2023/09/11 09:37:34;;;;;;;12.30;6.20;;;;;;;34.59;28.93;100333.80;109241;1276;21987;-81
2023/09/11 09:40:15;;;;;;;9.30;5.70;;;;;;;34.71;28.94;100332.34;109235;1278;21996;-82
2023/09/11 09:42:53;;;;;;;10.40;5.70;;;;;;;34.75;28.13;100329.60;109684;1272;23599;-85
2023/09/11 09:45:42;;;;;;;9.30;5.50;;;;;;;34.76;27.91;100328.95;109724;1270;21976;-82
2023/09/11 09:48:18;;;;;;;8.20;5.80;;;;;;;34.83;28.13;100327.94;110195;1265;21966;-83
2023/09/11 09:51:01;;;;;;;8.20;5.30;;;;;;;34.96;27.86;100324.59;109481;1272;21983;-83
2023/09/11 09:53:42;;;;;;;15.50;5.70;;;;;;;35.04;27.45;100324.41;109221;1278;21986;-82
2023/09/11 09:56:16;;;;;;;5.70;5.10;;;;;;;35.11;27.52;100319.91;109133;1274;21980;-84
2023/09/11 09:58:56;;;;;;;9.80;6.10;;;;;;;35.17;26.99;100316.78;109660;1269;23627;-82
2023/09/11 10:01:44;;;;;;;10.30;6.40;;;;;;;35.22;27.17;100314.21;109666;1269;22030;-83
2023/09/11 10:04:17;;;;;;;9.30;6.20;;;;;;;35.34;27.06;100306.55;109709;1269;21970;-82
2023/09/11 10:07:06;;;;;;;7.90;5.30;;;;;;;35.47;26.83;100305.60;109891;1269;21990;-85
2023/09/11 10:10:26;;;;;;;13.20;6.50;;;;;;;35.43;26.06;100300.59;110903;1262;21990;-84
2023/09/11 10:13:13;;;;;;;10.00;5.60;;;;;;;35.41;26.13;100294.51;111391;1255;22351;-83
2023/09/11 10:15:46;;;;;;;6.50;5.40;;;;;;;35.42;25.83;100291.57;110519;1261;21986;-82
2023/09/11 10:18:18;;;;;;;12.40;8.00;;;;;;;35.36;25.85;100290.75;110912;1261;21962;-82
2023/09/11 10:20:54;;;;;;;9.20;5.40;;;;;;;34.97;26.77;100289.09;110779;1261;21998;-84
2023/09/11 10:23:40;;;;;;;17.10;5.00;;;;;;;34.86;27.06;100286.72;110797;1261;21991;-84
2023/09/11 10:26:16;;;;;;;12.10;4.90;;;;;;;35.05;26.46;100279.48;110911;1261;21982;-84
2023/09/11 10:29:38;;;;;;;;;;;;;;;;;;;;;
2023/09/11 10:33:36;;;;;;;6.50;4.90;;;;;;;35.26;25.74;100276.52;111099;1265;22088;-90
2023/09/11 10:36:40;;;;;;;6.20;5.00;;;;;;;35.26;25.59;100276.27;111222;1260;22064;-82
2023/09/11 10:39:57;;;;;;;6.50;5.10;;;;;;;35.04;26.31;100274.47;110957;1260;23624;-86
2023/09/11 10:42:52;;;;;;;5.90;5.30;;;;;;;35.16;26.16;100267.92;110212;1268;21991;-84
2023/09/11 10:45:46;;;;;;;8.60;5.10;;;;;;;35.37;25.88;100269.74;110029;1268;21997;-86
2023/09/11 10:48:43;;;;;;;6.00;5.30;;;;;;;35.37;25.50;100264.69;109849;1271;21995;-87
2023/09/11 10:51:53;;;;;;;9.80;5.30;;;;;;;35.23;25.69;100266.29;109863;1271;22005;-86
2023/09/11 10:55:08;;;;;;;9.30;5.20;;;;;;;34.86;25.94;100268.19;109275;1277;22233;-86
2023/09/11 11:03:07;;;;;;;7.50;5.00;;;;;;;33.56;27.43;100268.44;109352;1278;22080;-85
2023/09/11 11:06:29;;;;;;;6.30;4.80;;;;;;;33.31;27.67;100266.80;109172;1278;22092;-85
2023/09/11 11:09:50;;;;;;;7.90;5.10;;;;;;;33.10;27.62;100262.73;109258;1279;21991;-87
2023/09/11 11:12:36;;;;;;;6.10;4.80;;;;;;;32.86;27.71;100262.54;109320;1275;22913;-86
2023/09/11 11:16:13;;;;;;;11.00;6.90;;;;;;;32.64;28.13;100255.19;109406;1277;22750;-86
2023/09/11 11:19:37;;;;;;;7.00;6.30;;;;;;;32.34;28.68;100249.44;110081;1268;22001;-85
2023/09/11 11:22:48;;;;;;;8.30;4.90;;;;;;;32.14;28.75;100246.17;109855;1268;23644;-86
2023/09/11 11:25:30;;;;;;;6.50;5.00;;;;;;;31.99;29.09;100245.89;109575;1273;21985;-85
2023/09/11 11:31:36;;;;;;;7.30;5.20;;;;;;;31.45;29.06;100243.02;109363;1276;22010;-88
2023/09/11 11:34:35;;;;;;;7.30;5.40;;;;;;;31.15;29.56;100238.20;109400;1277;22295;-89
2023/09/11 11:37:49;;;;;;;6.50;5.70;;;;;;;31.09;30.13;100235.38;109541;1268;21991;-85
2023/09/11 11:41:16;;;;;;;7.60;4.70;;;;;;;31.05;30.38;100235.30;109730;1272;22460;-87
2023/09/11 11:44:30;;;;;;;;;;;;;;;;;;;;;
2023/09/11 11:47:52;;;;;;;9.00;5.70;;;;;;;30.81;30.16;100237.06;109935;1270;22067;-84
2023/09/11 11:50:55;;;;;;;8.10;5.20;;;;;;;30.63;30.30;100233.77;109247;1273;22021;-86
2023/09/11 11:54:04;;;;;;;7.80;6.00;;;;;;;30.61;30.74;100230.36;109307;1276;22022;-86
2023/09/11 11:56:40;;;;;;;8.50;4.70;;;;;;;30.68;30.84;100229.31;109305;1276;21975;-89
2023/09/11 11:59:22;;;;;;;;;;;;;;;;;;;;;
2023/09/11 12:02:04;;;;;;;11.60;5.30;;;;;;;30.84;30.93;100228.09;110163;1265;22014;-86
2023/09/11 12:04:53;;;;;;;;;;;;;;;;;;;;;
2023/09/11 12:07:41;;;;;;;5.50;5.00;;;;;;;30.92;30.77;100231.04;110674;1265;21969;-87
2023/09/11 12:10:44;;;;;;;8.80;5.20;;;;;;;30.94;30.67;100230.22;110526;1264;22062;-86
2023/09/11 12:13:26;;;;;;;8.80;5.30;;;;;;;30.96;30.85;100227.27;109679;1271;21972;-86
2023/09/11 12:16:20;;;;;;;11.40;5.40;;;;;;;31.00;30.98;100226.92;109716;1271;23809;-85
2023/09/11 12:18:57;;;;;;;15.70;5.20;;;;;;;31.05;30.96;100228.64;109681;1271;22004;-86
2023/09/11 12:21:58;;;;;;;7.40;4.70;;;;;;;31.04;30.59;100226.20;110202;1265;21997;-86
2023/09/11 12:24:43;;;;;;;11.00;5.10;;;;;;;31.05;30.53;100222.15;110371;1264;22097;-83
2023/09/11 12:27:47;;;;;;;7.50;5.20;;;;;;;31.06;30.52;100219.48;110254;1265;22923;-85
2023/09/11 12:30:48;;;;;;;11.50;5.40;;;;;;;31.02;30.23;100216.98;110457;1258;22141;-86
2023/09/11 12:33:39;;;;;;;5.10;4.50;;;;;;;30.96;30.08;100216.11;110970;1258;21965;-85
2023/09/11 12:36:27;;;;;;;9.70;5.60;;;;;;;30.93;30.06;100217.11;110970;1258;21984;-88
2023/09/11 12:39:16;;;;;;;8.10;5.50;;;;;;;30.91;30.18;100219.49;111111;1258;22269;-85
2023/09/11 12:41:57;;;;;;;6.40;4.70;;;;;;;30.90;30.30;100215.87;111086;1257;21990;-86
2023/09/11 12:44:44;;;;;;;9.90;5.30;;;;;;;30.89;30.14;100213.99;111084;1258;23728;-85
2023/09/11 12:47:21;;;;;;;9.30;5.30;;;;;;;30.88;30.30;100218.52;111204;1258;22969;-87
2023/09/11 12:50:11;;;;;;;7.00;5.30;;;;;;;30.88;30.68;100208.82;111110;1256;21963;-85
2023/09/11 12:53:01;;;;;;;7.60;5.30;;;;;;;30.89;30.85;100214.27;111123;1258;22014;-86
2023/09/11 12:55:35;;;;;;;12.40;5.50;;;;;;;30.92;31.21;100210.89;111073;1258;23958;-87
2023/09/11 12:58:25;;;;;;;11.50;6.40;;;;;;;30.92;31.31;100212.64;111225;1258;22068;-88
2023/09/11 13:01:17;;;;;;;13.20;5.70;;;;;;;30.91;31.50;100212.61;110969;1258;22454;-88
2023/09/11 13:04:19;;;;;;;6.50;5.10;;;;;;;30.86;31.49;100212.39;111174;1258;22603;-85
2023/09/11 13:07:07;;;;;;;9.90;6.20;;;;;;;30.82;31.64;100206.23;110508;1263;22002;-87
2023/09/11 13:10:07;;;;;;;6.90;6.10;;;;;;;30.77;31.66;100204.92;110555;1265;22035;-87
2023/09/11 13:13:01;;;;;;;6.90;5.20;;;;;;;30.71;31.75;100202.52;110454;1265;21972;-86
2023/09/11 13:15:46;;;;;;;11.00;6.00;;;;;;;30.70;31.63;100203.38;110404;1265;21988;-85
2023/09/11 13:18:42;;;;;;;9.30;5.20;;;;;;;30.72;31.93;100203.77;110477;1265;22737;-83
2023/09/11 13:21:41;;;;;;;;;;;;;;;;;;;;;
2023/09/11 13:24:45;;;;;;;10.90;6.10;;;;;;;30.71;32.06;100201.52;109874;1265;21991;-81
2023/09/11 13:27:51;;;;;;;7.90;7.10;;;;;;;30.65;32.23;100197.03;110579;1263;24379;-82
2023/09/11 13:30:49;;;;;;;12.10;6.60;;;;;;;30.59;31.97;100189.23;109745;1269;23787;-82
2023/09/11 13:33:31;;;;;;;7.30;5.40;;;;;;;30.52;32.05;100191.70;109492;1273;22010;-81
2023/09/11 13:36:12;;;;;;;14.80;6.40;;;;;;;30.49;32.27;100197.71;109335;1273;21998;-81
2023/09/11 13:39:06;;;;;;;8.80;6.70;;;;;;;30.42;32.23;100193.13;109441;1273;23087;-80
2023/09/11 13:41:49;;;;;;;7.90;6.10;;;;;;;30.31;32.56;100183.96;108914;1276;21986;-82
2023/09/11 13:44:42;;;;;;;8.50;6.90;;;;;;;30.28;32.81;100189.39;109133;1272;21996;-82
2023/09/11 13:47:19;;;;;;;9.30;6.00;;;;;;;30.26;32.89;100189.31;109251;1277;23762;-83
2023/09/11 13:50:11;;;;;;;7.00;6.10;;;;;;;30.23;32.78;100186.56;109041;1282;22022;-83
2023/09/11 13:53:03;;;;;;;6.90;5.80;;;;;;;30.21;32.88;100191.71;109264;1278;22018;-81
2023/09/11 13:55:43;;;;;;;13.20;5.70;;;;;;;30.20;32.65;100189.67;109529;1272;22742;-80
2023/09/11 13:58:49;;;;;;;7.10;5.30;;;;;;;30.18;32.61;100183.77;109865;1267;23050;-83
2023/09/11 14:01:50;;;;;;;10.70;7.30;;;;;;;30.15;32.74;100186.52;110572;1264;21980;-81
2023/09/11 14:04:31;;;;;;;6.80;6.20;;;;;;;30.15;32.90;100181.70;110405;1265;22435;-81
2023/09/11 14:07:21;;;;;;;8.60;6.30;;;;;;;30.18;32.83;100179.67;110206;1263;21987;-81
2023/09/11 14:09:54;;;;;;;167.30;30.20;;;;;;;30.20;32.66;100179.20;110848;1263;21981;-85
2023/09/11 14:12:51;;;;;;;14.00;6.80;;;;;;;30.21;32.81;100174.45;110893;1263;23831;-82
2023/09/11 14:16:46;;;;;;;39.30;8.30;;;;;;;30.12;33.46;100176.34;110334;1270;22987;-84
2023/09/11 14:20:07;;;;;;;8.50;5.80;;;;;;;30.06;33.71;100172.34;110348;1269;21975;-80
2023/09/11 14:23:08;;;;;;;9.70;5.60;;;;;;;30.01;33.46;100168.89;109874;1269;21986;-82